sensor_id;sensor_type;location;lat;lon;timestamp;pressure;altitude;pressure_sealevel;temperature;humidity
40285;BME280;25997;50.214;19.354;2023-02-28T00:01:34;98970.09;;;-0.33;44.22
40285;BME280;25997;50.214;19.354;2023-02-28T00:04:36;98976.81;;;-0.25;44.27
40285;BME280;25997;50.214;19.354;2023-02-28T00:07:40;98967.63;;;-0.22;44.36
40285;BME280;25997;50.214;19.354;2023-02-28T00:10:43;98973.06;;;-0.18;44.40
40285;BME280;25997;50.214;19.354;2023-02-28T00:13:46;98972.41;;;-0.16;44.64
40285;BME280;25997;50.214;19.354;2023-02-28T00:16:49;98971.75;;;-0.24;44.26
40285;BME280;25997;50.214;19.354;2023-02-28T00:19:51;98974.75;;;-0.29;44.17
40285;BME280;25997;50.214;19.354;2023-02-28T00:22:55;98980.16;;;-0.36;44.14
40285;BME280;25997;50.214;19.354;2023-02-28T00:25:58;98970.38;;;-0.50;44.11
40285;BME280;25997;50.214;19.354;2023-02-28T00:29:00;98968.72;;;-0.70;43.85
40285;BME280;25997;50.214;19.354;2023-02-28T00:32:04;98967.81;;;-0.80;44.25
40285;BME280;25997;50.214;19.354;2023-02-28T00:35:08;98972.44;;;-0.86;44.70
40285;BME280;25997;50.214;19.354;2023-02-28T00:38:12;98974.38;;;-0.94;44.33
40285;BME280;25997;50.214;19.354;2023-02-28T00:41:15;98976.28;;;-1.02;44.57
40285;BME280;25997;50.214;19.354;2023-02-28T00:44:18;98969.59;;;-1.10;44.33
40285;BME280;25997;50.214;19.354;2023-02-28T00:47:22;98976.94;;;-1.14;44.46
40285;BME280;25997;50.214;19.354;2023-02-28T00:50:26;98971.50;;;-1.17;44.47
40285;BME280;25997;50.214;19.354;2023-02-28T00:53:33;98972.25;;;-1.28;43.99
40285;BME280;25997;50.214;19.354;2023-02-28T00:56:36;98978.25;;;-1.38;43.73
40285;BME280;25997;50.214;19.354;2023-02-28T00:59:40;98980.72;;;-1.39;44.38
40285;BME280;25997;50.214;19.354;2023-02-28T01:02:43;98983.28;;;-1.39;44.55
40285;BME280;25997;50.214;19.354;2023-02-28T01:05:47;98982.38;;;-1.40;44.76
40285;BME280;25997;50.214;19.354;2023-02-28T01:08:53;98976.19;;;-1.42;44.90
40285;BME280;25997;50.214;19.354;2023-02-28T01:11:57;98979.16;;;-1.47;44.70
40285;BME280;25997;50.214;19.354;2023-02-28T01:15:00;98979.91;;;-1.48;44.76
40285;BME280;25997;50.214;19.354;2023-02-28T01:18:02;98977.09;;;-1.51;44.34
40285;BME280;25997;50.214;19.354;2023-02-28T01:21:06;98974.13;;;-1.56;44.35
40285;BME280;25997;50.214;19.354;2023-02-28T01:24:11;98973.09;;;-1.58;44.48
40285;BME280;25997;50.214;19.354;2023-02-28T01:27:13;98973.34;;;-1.55;44.76
40285;BME280;25997;50.214;19.354;2023-02-28T01:30:16;98985.44;;;-1.54;44.88
40285;BME280;25997;50.214;19.354;2023-02-28T01:33:22;98975.38;;;-1.61;45.34
40285;BME280;25997;50.214;19.354;2023-02-28T01:36:24;98975.72;;;-1.67;45.55
40285;BME280;25997;50.214;19.354;2023-02-28T01:39:29;98970.19;;;-1.71;46.05
40285;BME280;25997;50.214;19.354;2023-02-28T01:42:31;98967.97;;;-1.77;45.95
40285;BME280;25997;50.214;19.354;2023-02-28T01:45:34;98969.53;;;-1.79;45.92
40285;BME280;25997;50.214;19.354;2023-02-28T01:48:40;98970.16;;;-1.81;45.70
40285;BME280;25997;50.214;19.354;2023-02-28T01:51:46;98973.84;;;-1.88;46.01
40285;BME280;25997;50.214;19.354;2023-02-28T01:54:55;98970.88;;;-1.92;46.43
40285;BME280;25997;50.214;19.354;2023-02-28T01:58:00;98974.84;;;-1.96;46.46
40285;BME280;25997;50.214;19.354;2023-02-28T02:01:04;98972.91;;;-1.98;46.42
40285;BME280;25997;50.214;19.354;2023-02-28T02:04:08;98967.19;;;-2.04;46.51
40285;BME280;25997;50.214;19.354;2023-02-28T02:07:11;98965.34;;;-2.15;46.50
40285;BME280;25997;50.214;19.354;2023-02-28T02:10:25;98962.09;;;-2.23;46.60
40285;BME280;25997;50.214;19.354;2023-02-28T02:13:47;98957.56;;;-2.25;46.59
40285;BME280;25997;50.214;19.354;2023-02-28T02:17:05;98954.88;;;-2.27;45.93
40285;BME280;25997;50.214;19.354;2023-02-28T02:20:44;98952.03;;;-2.30;46.06
40285;BME280;25997;50.214;19.354;2023-02-28T02:24:03;98955.59;;;-2.38;46.07
40285;BME280;25997;50.214;19.354;2023-02-28T02:27:23;98960.78;;;-2.47;46.58
40285;BME280;25997;50.214;19.354;2023-02-28T02:30:46;98953.84;;;-2.48;46.59
40285;BME280;25997;50.214;19.354;2023-02-28T02:34:26;98958.63;;;-2.42;46.15
40285;BME280;25997;50.214;19.354;2023-02-28T02:37:37;98956.81;;;-2.43;45.79
40285;BME280;25997;50.214;19.354;2023-02-28T02:40:46;98954.75;;;-2.47;45.97
40285;BME280;25997;50.214;19.354;2023-02-28T02:43:51;98960.63;;;-2.48;45.87
40285;BME280;25997;50.214;19.354;2023-02-28T02:46:59;98949.94;;;-2.53;46.13
40285;BME280;25997;50.214;19.354;2023-02-28T02:50:08;98950.44;;;-2.57;46.15
40285;BME280;25997;50.214;19.354;2023-02-28T02:53:16;98951.97;;;-2.59;46.05
40285;BME280;25997;50.214;19.354;2023-02-28T02:56:24;98951.84;;;-2.60;46.59
40285;BME280;25997;50.214;19.354;2023-02-28T02:59:28;98945.84;;;-2.69;46.53
40285;BME280;25997;50.214;19.354;2023-02-28T03:02:33;98950.56;;;-2.74;46.81
40285;BME280;25997;50.214;19.354;2023-02-28T03:05:41;98950.41;;;-2.75;46.87
40285;BME280;25997;50.214;19.354;2023-02-28T03:08:46;98960.56;;;-2.77;47.18
40285;BME280;25997;50.214;19.354;2023-02-28T03:11:50;98959.22;;;-2.82;46.93
40285;BME280;25997;50.214;19.354;2023-02-28T03:14:58;98947.41;;;-2.80;47.09
40285;BME280;25997;50.214;19.354;2023-02-28T03:18:15;98957.25;;;-2.76;47.38
40285;BME280;25997;50.214;19.354;2023-02-28T03:21:28;98952.97;;;-2.75;47.49
40285;BME280;25997;50.214;19.354;2023-02-28T03:24:36;98965.09;;;-2.74;47.18
40285;BME280;25997;50.214;19.354;2023-02-28T03:27:52;98956.75;;;-2.72;47.39
40285;BME280;25997;50.214;19.354;2023-02-28T03:30:59;98959.31;;;-2.72;47.69
40285;BME280;25997;50.214;19.354;2023-02-28T03:34:06;98957.66;;;-2.71;47.46
40285;BME280;25997;50.214;19.354;2023-02-28T03:37:14;98960.00;;;-2.83;47.84
40285;BME280;25997;50.214;19.354;2023-02-28T03:40:22;98973.97;;;-2.89;48.03
40285;BME280;25997;50.214;19.354;2023-02-28T03:43:29;98977.19;;;-3.00;48.23
40285;BME280;25997;50.214;19.354;2023-02-28T03:46:35;98965.03;;;-3.11;48.27
40285;BME280;25997;50.214;19.354;2023-02-28T03:49:43;98977.88;;;-3.20;48.44
40285;BME280;25997;50.214;19.354;2023-02-28T03:52:54;98975.09;;;-3.32;49.01
40285;BME280;25997;50.214;19.354;2023-02-28T03:56:06;98975.13;;;-3.40;48.71
40285;BME280;25997;50.214;19.354;2023-02-28T03:59:14;98971.69;;;-3.49;49.13
40285;BME280;25997;50.214;19.354;2023-02-28T04:02:17;98978.03;;;-3.54;49.16
40285;BME280;25997;50.214;19.354;2023-02-28T04:05:20;98982.44;;;-3.62;49.21
40285;BME280;25997;50.214;19.354;2023-02-28T04:08:24;98974.16;;;-3.68;50.15
40285;BME280;25997;50.214;19.354;2023-02-28T04:11:32;98977.16;;;-3.63;49.94
40285;BME280;25997;50.214;19.354;2023-02-28T04:14:35;98980.91;;;-3.60;50.52
40285;BME280;25997;50.214;19.354;2023-02-28T04:17:38;98988.91;;;-3.57;50.46
40285;BME280;25997;50.214;19.354;2023-02-28T04:20:40;98988.91;;;-3.57;51.14
40285;BME280;25997;50.214;19.354;2023-02-28T04:23:44;98989.84;;;-3.56;51.39
40285;BME280;25997;50.214;19.354;2023-02-28T04:26:48;98999.63;;;-3.52;51.67
40285;BME280;25997;50.214;19.354;2023-02-28T04:29:51;99005.19;;;-3.48;nan
40285;BME280;25997;50.214;19.354;2023-02-28T04:32:53;99003.38;;;-3.49;51.60
40285;BME280;25997;50.214;19.354;2023-02-28T04:36:00;99009.16;;;-3.51;52.19
40285;BME280;25997;50.214;19.354;2023-02-28T04:39:04;99004.00;;;-3.51;51.79
40285;BME280;25997;50.214;19.354;2023-02-28T04:42:07;99008.22;;;-3.52;51.69
40285;BME280;25997;50.214;19.354;2023-02-28T04:45:10;99014.28;;;-3.51;51.66
40285;BME280;25997;50.214;19.354;2023-02-28T04:48:14;99009.28;;;-3.50;51.63
40285;BME280;25997;50.214;19.354;2023-02-28T04:51:18;99004.75;;;-3.52;51.43
40285;BME280;25997;50.214;19.354;2023-02-28T04:54:23;99016.53;;;-3.54;50.90
40285;BME280;25997;50.214;19.354;2023-02-28T04:57:27;99011.88;;;-3.58;50.92
40285;BME280;25997;50.214;19.354;2023-02-28T05:00:31;99009.50;;;-3.74;51.48
40285;BME280;25997;50.214;19.354;2023-02-28T05:03:34;99017.22;;;-3.82;51.85
40285;BME280;25997;50.214;19.354;2023-02-28T05:06:37;99011.91;;;-3.84;51.72
40285;BME280;25997;50.214;19.354;2023-02-28T05:09:40;99014.22;;;-3.87;51.25
40285;BME280;25997;50.214;19.354;2023-02-28T05:12:43;99013.59;;;-4.02;51.56
40285;BME280;25997;50.214;19.354;2023-02-28T05:15:45;99012.44;;;-4.14;51.77
40285;BME280;25997;50.214;19.354;2023-02-28T05:18:48;99010.16;;;-4.19;52.62
40285;BME280;25997;50.214;19.354;2023-02-28T05:21:52;99014.97;;;-4.22;52.99
40285;BME280;25997;50.214;19.354;2023-02-28T05:24:56;99011.69;;;-4.21;53.22
40285;BME280;25997;50.214;19.354;2023-02-28T05:27:59;99017.84;;;-4.19;52.33
40285;BME280;25997;50.214;19.354;2023-02-28T05:31:01;99024.19;;;-4.24;52.70
40285;BME280;25997;50.214;19.354;2023-02-28T05:34:04;99023.13;;;-4.26;52.36
40285;BME280;25997;50.214;19.354;2023-02-28T05:37:11;99028.84;;;-4.29;52.26
40285;BME280;25997;50.214;19.354;2023-02-28T05:40:16;99037.16;;;-4.31;52.11
40285;BME280;25997;50.214;19.354;2023-02-28T05:43:18;99041.22;;;-4.33;52.05
40285;BME280;25997;50.214;19.354;2023-02-28T05:46:21;99041.53;;;-4.39;52.14
40285;BME280;25997;50.214;19.354;2023-02-28T05:49:23;99042.56;;;-4.45;52.63
40285;BME280;25997;50.214;19.354;2023-02-28T05:52:26;99048.16;;;-4.49;52.52
40285;BME280;25997;50.214;19.354;2023-02-28T05:55:30;99049.66;;;-4.51;52.48
40285;BME280;25997;50.214;19.354;2023-02-28T05:58:32;99056.72;;;-4.57;52.96
40285;BME280;25997;50.214;19.354;2023-02-28T06:01:37;99055.84;;;-4.58;52.61
40285;BME280;25997;50.214;19.354;2023-02-28T06:04:39;99059.44;;;-4.64;53.74
40285;BME280;25997;50.214;19.354;2023-02-28T06:07:43;99055.50;;;-4.61;53.90
40285;BME280;25997;50.214;19.354;2023-02-28T06:10:47;99058.69;;;-4.55;53.78
40285;BME280;25997;50.214;19.354;2023-02-28T06:13:49;99061.25;;;-4.46;53.38
40285;BME280;25997;50.214;19.354;2023-02-28T06:16:55;99065.03;;;-4.43;53.38
40285;BME280;25997;50.214;19.354;2023-02-28T06:19:57;99065.50;;;-4.38;53.20
40285;BME280;25997;50.214;19.354;2023-02-28T06:23:00;99068.81;;;-4.31;53.13
40285;BME280;25997;50.214;19.354;2023-02-28T06:26:05;99078.47;;;-4.20;53.14
40285;BME280;25997;50.214;19.354;2023-02-28T06:29:07;99078.03;;;-4.07;53.10
40285;BME280;25997;50.214;19.354;2023-02-28T06:32:09;99072.59;;;-4.02;53.14
40285;BME280;25997;50.214;19.354;2023-02-28T06:35:12;99076.19;;;-4.00;52.99
40285;BME280;25997;50.214;19.354;2023-02-28T06:38:14;99082.84;;;-3.93;52.94
40285;BME280;25997;50.214;19.354;2023-02-28T06:41:18;99077.88;;;-3.83;52.84
40285;BME280;25997;50.214;19.354;2023-02-28T06:44:21;99072.72;;;-3.74;53.18
40285;BME280;25997;50.214;19.354;2023-02-28T06:47:24;99076.31;;;-3.64;52.95
40285;BME280;25997;50.214;19.354;2023-02-28T06:50:26;99079.47;;;-3.58;52.72
40285;BME280;25997;50.214;19.354;2023-02-28T06:53:30;99088.53;;;-3.53;52.67
40285;BME280;25997;50.214;19.354;2023-02-28T06:56:35;99092.56;;;-3.38;53.21
40285;BME280;25997;50.214;19.354;2023-02-28T06:59:37;99093.88;;;-3.24;53.02
40285;BME280;25997;50.214;19.354;2023-02-28T07:02:40;99085.53;;;-3.13;52.77
40285;BME280;25997;50.214;19.354;2023-02-28T07:05:42;99096.22;;;-3.00;52.77
40285;BME280;25997;50.214;19.354;2023-02-28T07:08:45;99097.56;;;-2.95;52.72
40285;BME280;25997;50.214;19.354;2023-02-28T07:11:49;99097.06;;;-2.82;52.64
40285;BME280;25997;50.214;19.354;2023-02-28T07:14:51;99099.13;;;-2.70;52.89
40285;BME280;25997;50.214;19.354;2023-02-28T07:17:55;99097.06;;;-2.55;52.56
40285;BME280;25997;50.214;19.354;2023-02-28T07:20:58;99094.00;;;-2.43;52.62
40285;BME280;25997;50.214;19.354;2023-02-28T07:24:03;99107.22;;;-2.29;52.18
40285;BME280;25997;50.214;19.354;2023-02-28T07:27:08;99104.28;;;-2.24;52.13
40285;BME280;25997;50.214;19.354;2023-02-28T07:30:11;99106.16;;;-2.13;51.98
40285;BME280;25997;50.214;19.354;2023-02-28T07:33:14;99099.91;;;-2.06;51.90
40285;BME280;25997;50.214;19.354;2023-02-28T07:36:17;99103.34;;;-1.97;51.85
40285;BME280;25997;50.214;19.354;2023-02-28T07:39:21;99101.72;;;-1.87;51.61
40285;BME280;25997;50.214;19.354;2023-02-28T07:42:25;99102.44;;;-1.79;51.52
40285;BME280;25997;50.214;19.354;2023-02-28T07:45:28;99099.94;;;-1.69;51.71
40285;BME280;25997;50.214;19.354;2023-02-28T07:48:32;99090.72;;;-1.57;51.93
40285;BME280;25997;50.214;19.354;2023-02-28T07:51:35;99096.06;;;-1.45;51.37
40285;BME280;25997;50.214;19.354;2023-02-28T07:54:37;99090.59;;;-1.30;51.35
40285;BME280;25997;50.214;19.354;2023-02-28T07:57:41;99092.34;;;-1.10;51.13
40285;BME280;25997;50.214;19.354;2023-02-28T08:00:44;99099.88;;;-0.93;50.84
40285;BME280;25997;50.214;19.354;2023-02-28T08:03:47;99092.97;;;-0.74;50.91
40285;BME280;25997;50.214;19.354;2023-02-28T08:06:49;99105.13;;;-0.53;50.31
40285;BME280;25997;50.214;19.354;2023-02-28T08:09:53;99095.63;;;-0.34;49.84
40285;BME280;25997;50.214;19.354;2023-02-28T08:12:57;99091.72;;;-0.29;48.41
40285;BME280;25997;50.214;19.354;2023-02-28T08:16:01;99097.78;;;-0.28;48.15
40285;BME280;25997;50.214;19.354;2023-02-28T08:19:04;99087.88;;;-0.13;48.42
40285;BME280;25997;50.214;19.354;2023-02-28T08:22:07;99092.91;;;-0.05;48.41
40285;BME280;25997;50.214;19.354;2023-02-28T08:25:10;99096.91;;;0.02;47.77
40285;BME280;25997;50.214;19.354;2023-02-28T08:28:14;99103.47;;;0.08;48.02
40285;BME280;25997;50.214;19.354;2023-02-28T08:31:17;99092.22;;;0.08;47.85
40285;BME280;25997;50.214;19.354;2023-02-28T08:34:20;99099.47;;;0.02;47.33
40285;BME280;25997;50.214;19.354;2023-02-28T08:37:22;99101.16;;;0.01;47.28
40285;BME280;25997;50.214;19.354;2023-02-28T08:40:25;99106.06;;;0.08;47.37
40285;BME280;25997;50.214;19.354;2023-02-28T08:43:29;99102.94;;;0.12;47.31
40285;BME280;25997;50.214;19.354;2023-02-28T08:46:32;99103.97;;;0.24;47.10
40285;BME280;25997;50.214;19.354;2023-02-28T08:49:34;99103.56;;;0.40;46.84
40285;BME280;25997;50.214;19.354;2023-02-28T08:52:37;99107.53;;;0.57;46.10
40285;BME280;25997;50.214;19.354;2023-02-28T08:55:40;99105.53;;;0.74;45.82
40285;BME280;25997;50.214;19.354;2023-02-28T08:58:45;99109.03;;;1.06;46.00
40285;BME280;25997;50.214;19.354;2023-02-28T09:01:48;99104.47;;;1.14;44.93
40285;BME280;25997;50.214;19.354;2023-02-28T09:04:51;99108.56;;;1.22;45.20
40285;BME280;25997;50.214;19.354;2023-02-28T09:07:53;99103.28;;;1.42;45.26
40285;BME280;25997;50.214;19.354;2023-02-28T09:10:56;99104.53;;;1.47;44.00
40285;BME280;25997;50.214;19.354;2023-02-28T09:14:00;99112.69;;;1.63;44.63
40285;BME280;25997;50.214;19.354;2023-02-28T09:17:04;99108.94;;;1.81;44.66
40285;BME280;25997;50.214;19.354;2023-02-28T09:20:08;99109.09;;;1.94;44.16
40285;BME280;25997;50.214;19.354;2023-02-28T09:23:12;99106.56;;;2.06;43.64
40285;BME280;25997;50.214;19.354;2023-02-28T09:26:15;99103.59;;;2.02;43.74
40285;BME280;25997;50.214;19.354;2023-02-28T09:29:19;99104.16;;;2.09;43.48
40285;BME280;25997;50.214;19.354;2023-02-28T09:32:22;99110.69;;;1.92;42.12
40285;BME280;25997;50.214;19.354;2023-02-28T09:35:25;99102.25;;;1.73;42.54
40285;BME280;25997;50.214;19.354;2023-02-28T09:38:27;99097.22;;;1.75;42.80
40285;BME280;25997;50.214;19.354;2023-02-28T09:41:37;99111.06;;;1.75;42.73
40285;BME280;25997;50.214;19.354;2023-02-28T09:44:50;99107.84;;;1.89;42.57
40285;BME280;25997;50.214;19.354;2023-02-28T09:47:56;99103.78;;;2.26;43.18
40285;BME280;25997;50.214;19.354;2023-02-28T09:51:04;99110.91;;;2.75;42.26
40285;BME280;25997;50.214;19.354;2023-02-28T09:54:13;99109.53;;;3.26;42.33
40285;BME280;25997;50.214;19.354;2023-02-28T09:57:31;99106.50;;;3.45;41.46
40285;BME280;25997;50.214;19.354;2023-02-28T10:00:38;99112.06;;;3.74;41.92
40285;BME280;25997;50.214;19.354;2023-02-28T10:03:47;99110.16;;;3.96;40.93
40285;BME280;25997;50.214;19.354;2023-02-28T10:06:52;99115.03;;;3.92;37.96
40285;BME280;25997;50.214;19.354;2023-02-28T10:09:57;99103.47;;;3.75;40.28
40285;BME280;25997;50.214;19.354;2023-02-28T10:13:06;99111.88;;;3.35;39.27
40285;BME280;25997;50.214;19.354;2023-02-28T10:16:20;99109.31;;;3.12;39.67
40285;BME280;25997;50.214;19.354;2023-02-28T10:19:29;99114.50;;;2.77;40.22
40285;BME280;25997;50.214;19.354;2023-02-28T10:22:37;99106.25;;;2.83;40.30
40285;BME280;25997;50.214;19.354;2023-02-28T10:25:45;99104.94;;;2.88;41.04
40285;BME280;25997;50.214;19.354;2023-02-28T10:28:51;99089.84;;;3.41;41.40
40285;BME280;25997;50.214;19.354;2023-02-28T10:32:01;99089.00;;;4.03;40.47
40285;BME280;25997;50.214;19.354;2023-02-28T10:35:13;99088.63;;;4.74;40.47
40285;BME280;25997;50.214;19.354;2023-02-28T10:38:19;99082.25;;;5.23;40.25
40285;BME280;25997;50.214;19.354;2023-02-28T10:41:30;99080.31;;;5.75;39.62
40285;BME280;25997;50.214;19.354;2023-02-28T10:44:35;99078.00;;;5.94;39.46
40285;BME280;25997;50.214;19.354;2023-02-28T10:47:49;99076.69;;;6.15;38.84
40285;BME280;25997;50.214;19.354;2023-02-28T10:50:55;99075.03;;;6.30;39.19
40285;BME280;25997;50.214;19.354;2023-02-28T10:53:59;99070.91;;;6.48;39.04
40285;BME280;25997;50.214;19.354;2023-02-28T10:57:14;99071.78;;;6.34;35.72
40285;BME280;25997;50.214;19.354;2023-02-28T11:00:20;99061.34;;;6.34;37.72
40285;BME280;25997;50.214;19.354;2023-02-28T11:03:30;99061.06;;;6.15;36.33
40285;BME280;25997;50.214;19.354;2023-02-28T11:06:34;99068.41;;;6.07;37.20
40285;BME280;25997;50.214;19.354;2023-02-28T11:09:39;99060.81;;;6.40;37.92
40285;BME280;25997;50.214;19.354;2023-02-28T11:12:42;99065.91;;;6.67;37.66
40285;BME280;25997;50.214;19.354;2023-02-28T11:15:51;99057.75;;;7.23;37.27
40285;BME280;25997;50.214;19.354;2023-02-28T11:18:55;99055.72;;;7.17;36.56
40285;BME280;25997;50.214;19.354;2023-02-28T11:22:01;99049.88;;;6.76;36.26
40285;BME280;25997;50.214;19.354;2023-02-28T11:25:09;99037.78;;;6.62;36.38
40285;BME280;25997;50.214;19.354;2023-02-28T11:28:25;99039.94;;;6.69;36.36
40285;BME280;25997;50.214;19.354;2023-02-28T11:31:28;99033.56;;;6.94;36.96
40285;BME280;25997;50.214;19.354;2023-02-28T11:34:35;99035.75;;;7.34;35.74
40285;BME280;25997;50.214;19.354;2023-02-28T11:37:39;99028.50;;;7.60;36.23
40285;BME280;25997;50.214;19.354;2023-02-28T11:40:48;99025.53;;;8.03;34.19
40285;BME280;25997;50.214;19.354;2023-02-28T11:44:02;99029.47;;;8.11;33.75
40285;BME280;25997;50.214;19.354;2023-02-28T11:47:14;99016.94;;;8.21;34.82
40285;BME280;25997;50.214;19.354;2023-02-28T11:50:45;99012.75;;;8.42;34.74
40285;BME280;25997;50.214;19.354;2023-02-28T11:53:57;99014.97;;;8.51;33.95
40285;BME280;25997;50.214;19.354;2023-02-28T11:57:19;99007.03;;;8.67;34.41
40285;BME280;25997;50.214;19.354;2023-02-28T12:00:38;99005.81;;;8.78;32.93
40285;BME280;25997;50.214;19.354;2023-02-28T12:03:46;99007.59;;;8.95;34.28
40285;BME280;25997;50.214;19.354;2023-02-28T12:06:58;99001.56;;;9.35;34.26
40285;BME280;25997;50.214;19.354;2023-02-28T12:10:12;98990.41;;;9.39;33.40
40285;BME280;25997;50.214;19.354;2023-02-28T12:13:25;99001.25;;;9.46;34.47
40285;BME280;25997;50.214;19.354;2023-02-28T12:16:49;99000.91;;;9.77;33.32
40285;BME280;25997;50.214;19.354;2023-02-28T12:20:02;98994.50;;;9.70;33.06
40285;BME280;25997;50.214;19.354;2023-02-28T12:23:22;99004.88;;;9.69;32.68
40285;BME280;25997;50.214;19.354;2023-02-28T12:26:34;98994.19;;;9.26;32.40
40285;BME280;25997;50.214;19.354;2023-02-28T12:29:46;99002.91;;;9.07;33.44
40285;BME280;25997;50.214;19.354;2023-02-28T12:32:53;98994.09;;;9.24;32.67
40285;BME280;25997;50.214;19.354;2023-02-28T12:35:59;98999.91;;;9.37;33.05
40285;BME280;25997;50.214;19.354;2023-02-28T12:39:09;98994.13;;;9.44;32.00
40285;BME280;25997;50.214;19.354;2023-02-28T12:42:16;98989.72;;;9.43;32.43
40285;BME280;25997;50.214;19.354;2023-02-28T12:45:23;99000.97;;;9.59;32.43
40285;BME280;25997;50.214;19.354;2023-02-28T12:48:31;99003.59;;;9.59;31.11
40285;BME280;25997;50.214;19.354;2023-02-28T12:51:34;98992.06;;;9.37;31.70
40285;BME280;25997;50.214;19.354;2023-02-28T12:54:46;98987.59;;;9.72;31.51
40285;BME280;25997;50.214;19.354;2023-02-28T12:57:57;98991.88;;;9.70;30.55
40285;BME280;25997;50.214;19.354;2023-02-28T13:01:27;98985.81;;;10.11;29.91
40285;BME280;25997;50.214;19.354;2023-02-28T13:05:00;98974.91;;;10.42;29.47
40285;BME280;25997;50.214;19.354;2023-02-28T13:08:23;98981.16;;;10.66;30.08
40285;BME280;25997;50.214;19.354;2023-02-28T13:11:39;98987.25;;;10.87;31.32
40285;BME280;25997;50.214;19.354;2023-02-28T13:14:43;98984.75;;;10.90;31.02
40285;BME280;25997;50.214;19.354;2023-02-28T13:17:48;98983.50;;;10.60;29.46
40285;BME280;25997;50.214;19.354;2023-02-28T13:20:51;98984.69;;;10.25;30.92
40285;BME280;25997;50.214;19.354;2023-02-28T13:24:01;98986.47;;;10.06;28.64
40285;BME280;25997;50.214;19.354;2023-02-28T13:27:33;98975.47;;;10.14;27.19
40285;BME280;25997;50.214;19.354;2023-02-28T13:31:04;98972.38;;;10.65;28.75
40285;BME280;25997;50.214;19.354;2023-02-28T13:34:15;98974.41;;;10.72;29.91
40285;BME280;25997;50.214;19.354;2023-02-28T13:37:35;98969.38;;;10.99;28.51
40285;BME280;25997;50.214;19.354;2023-02-28T13:40:39;98977.47;;;10.83;29.83
40285;BME280;25997;50.214;19.354;2023-02-28T13:44:03;98975.63;;;10.60;26.96
40285;BME280;25997;50.214;19.354;2023-02-28T13:47:31;98974.53;;;10.33;27.94
40285;BME280;25997;50.214;19.354;2023-02-28T13:50:37;98970.06;;;10.11;29.25
40285;BME280;25997;50.214;19.354;2023-02-28T13:53:53;98963.53;;;9.82;28.43
40285;BME280;25997;50.214;19.354;2023-02-28T13:57:10;98967.69;;;9.58;29.53
40285;BME280;25997;50.214;19.354;2023-02-28T14:00:23;98954.31;;;9.71;28.96
40285;BME280;25997;50.214;19.354;2023-02-28T14:03:42;98946.84;;;10.20;29.31
40285;BME280;25997;50.214;19.354;2023-02-28T14:06:50;98957.03;;;10.13;29.56
40285;BME280;25997;50.214;19.354;2023-02-28T14:09:59;98950.81;;;10.31;29.52
40285;BME280;25997;50.214;19.354;2023-02-28T14:13:37;98956.56;;;10.23;27.54
40285;BME280;25997;50.214;19.354;2023-02-28T14:16:47;98959.19;;;10.23;29.81
40285;BME280;25997;50.214;19.354;2023-02-28T14:19:51;98948.13;;;10.50;29.37
40285;BME280;25997;50.214;19.354;2023-02-28T14:22:58;98953.81;;;10.83;29.46
40285;BME280;25997;50.214;19.354;2023-02-28T14:26:10;98948.03;;;10.49;28.42
40285;BME280;25997;50.214;19.354;2023-02-28T14:29:41;98946.06;;;10.43;28.66
40285;BME280;25997;50.214;19.354;2023-02-28T14:32:50;98941.34;;;10.55;29.37
40285;BME280;25997;50.214;19.354;2023-02-28T14:36:04;98939.47;;;10.53;28.57
40285;BME280;25997;50.214;19.354;2023-02-28T14:39:13;98939.16;;;10.45;29.05
40285;BME280;25997;50.214;19.354;2023-02-28T14:42:30;98947.88;;;10.24;27.08
40285;BME280;25997;50.214;19.354;2023-02-28T14:45:35;98940.75;;;9.42;28.79
40285;BME280;25997;50.214;19.354;2023-02-28T14:48:39;98939.06;;;9.24;29.70
40285;BME280;25997;50.214;19.354;2023-02-28T14:51:42;98939.50;;;9.53;29.31
40285;BME280;25997;50.214;19.354;2023-02-28T14:54:45;98935.41;;;9.40;28.69
40285;BME280;25997;50.214;19.354;2023-02-28T14:57:52;98943.78;;;9.12;29.25
40285;BME280;25997;50.214;19.354;2023-02-28T15:00:56;98947.09;;;9.27;29.32
40285;BME280;25997;50.214;19.354;2023-02-28T15:04:03;98948.28;;;9.53;28.99
40285;BME280;25997;50.214;19.354;2023-02-28T15:07:10;98954.72;;;9.23;28.79
40285;BME280;25997;50.214;19.354;2023-02-28T15:10:18;98946.72;;;8.83;28.25
40285;BME280;25997;50.214;19.354;2023-02-28T15:13:22;98951.69;;;8.42;29.08
40285;BME280;25997;50.214;19.354;2023-02-28T15:16:29;98945.06;;;7.97;29.28
40285;BME280;25997;50.214;19.354;2023-02-28T15:19:37;98955.03;;;7.70;29.38
40285;BME280;25997;50.214;19.354;2023-02-28T15:22:43;98952.31;;;7.21;29.96
40285;BME280;25997;50.214;19.354;2023-02-28T15:25:48;98949.06;;;7.08;30.04
40285;BME280;25997;50.214;19.354;2023-02-28T15:28:57;98949.69;;;7.21;30.37
40285;BME280;25997;50.214;19.354;2023-02-28T15:32:04;98947.25;;;7.24;30.49
40285;BME280;25997;50.214;19.354;2023-02-28T15:35:20;98946.69;;;6.97;29.98
40285;BME280;25997;50.214;19.354;2023-02-28T15:38:28;98944.97;;;6.97;30.55
40285;BME280;25997;50.214;19.354;2023-02-28T15:41:36;98944.47;;;6.88;30.67
40285;BME280;25997;50.214;19.354;2023-02-28T15:44:39;98952.78;;;6.36;30.84
40285;BME280;25997;50.214;19.354;2023-02-28T15:47:45;98943.03;;;5.88;31.17
40285;BME280;25997;50.214;19.354;2023-02-28T15:50:52;98952.22;;;5.39;31.59
40285;BME280;25997;50.214;19.354;2023-02-28T15:53:58;98946.28;;;5.00;32.27
40285;BME280;25997;50.214;19.354;2023-02-28T15:57:03;98950.13;;;4.78;32.47
40285;BME280;25997;50.214;19.354;2023-02-28T16:00:12;98946.28;;;4.46;32.69
40285;BME280;25997;50.214;19.354;2023-02-28T16:03:37;98948.06;;;4.07;33.08
40285;BME280;25997;50.214;19.354;2023-02-28T16:06:43;98957.75;;;3.71;33.81
40285;BME280;25997;50.214;19.354;2023-02-28T16:09:46;98950.63;;;3.30;33.82
40285;BME280;25997;50.214;19.354;2023-02-28T16:12:49;98943.56;;;2.80;34.50
40285;BME280;25997;50.214;19.354;2023-02-28T16:15:51;98948.63;;;2.42;34.88
40285;BME280;25997;50.214;19.354;2023-02-28T16:18:55;98953.75;;;2.06;35.34
40285;BME280;25997;50.214;19.354;2023-02-28T16:21:59;98958.13;;;1.72;35.89
40285;BME280;25997;50.214;19.354;2023-02-28T16:25:01;98955.72;;;1.52;36.43